Aérodrome :
LOGIN :

S'inscrire | Disclaimer

   EN    FR    IT 

 










Légende :    VFR   VFR Marginal   IFR   IFR Intensif   IFR Très Intensif
Visi : 
Plafond : 
>= 8 km
>= 3000ft
5 à 8 km
1000 à 3000 ft
1500m à 5 km
500 à 1000 ft
800 à 1500m
200 à 500 ft
< 800m
< 200 ft
Symboles :   Orages  Brouillard  Fortes neiges  Fortes précipitations  Vent > 20 kt
SIGMETs :   Divers  Orages  Givrage  Turbulence  Onde Orograph.  Cendres Volcan.






- Altitude de l'aérodrome : 13 ft
- Code IATA : OST


EBOS - Oostend bruges Int.

DERNIER METAR :
  • 231050Z 25032G51KT 9000 FEW009 BKN011 12/10 Q1013 TEMPO 4000 -DZ BKN009

METARs EXPIRÉS :
  • 231020Z 25037G48KT 9999 FEW010 BKN012 12/10 Q1012 TEMPO 4000 -DZ BKN009
  • 230950Z 25033G43KT 9999 FEW010 BKN012 12/10 Q1012 TEMPO 4000 -DZ BKN009
  • 230920Z 25036G51KT 9999 FEW009 BKN011 12/09 Q1012 TEMPO 4000 -DZ BKN009
  • 230850Z 25038G54KT 9999 -DZ FEW009 BKN013 12/10 Q1013 TEMPO 4000 -DZ BKN009
  • 230820Z 24036G55KT 9999 FEW009 BKN014 12/10 Q1012 TEMPO 4000 -DZ BKN009

TAF TAF EBOS
Valide du 23 à 06h jusqu'au 24 à 12h UTC


230501Z 2306/2412 23028G42KT 6000 -RA SCT006 BKN010
TEMPO 2306/2316 4000 RA SCT004 BKN006
BECMG 2314/2316 30012KT SCT020
BECMG 2400/2402 18005KT
BECMG 2405/2407 4000 -RADZ BKN006
BECMG 2408/2410 23020G33KT



MET'MAP, la Météo Aéronautique d'un coup d'oeil ! - Copyright ORBIFLY Décembre 2007 - Disclaimer

ORBIFLY MET'MAP TEAM :

Programmation & Développement : Alexandra Zaïnal
Sur une idée originale de : Baudouin d'Aumeries
Assistance à la programmation : Marc-Olivier Méhu
Soutien technique & logistique : Manuel Goepfert

Contact : metmap@orbifly.com




SOURCES & CREDITS :

   NOAA